sensor_id;sensor_type;location;lat;lon;timestamp;temperature;humidity
17128;DHT22;8679;50.842;4.322;2023-06-26T00:00:50;22.50;99.90
17128;DHT22;8679;50.842;4.322;2023-06-26T00:03:15;22.50;99.90
17128;DHT22;8679;50.842;4.322;2023-06-26T00:05:41;22.40;1.00
17128;DHT22;8679;50.842;4.322;2023-06-26T00:08:07;22.40;1.00
17128;DHT22;8679;50.842;4.322;2023-06-26T00:10:34;22.40;1.00
17128;DHT22;8679;50.842;4.322;2023-06-26T00:13:00;22.30;99.90
17128;DHT22;8679;50.842;4.322;2023-06-26T00:15:26;22.20;1.00
17128;DHT22;8679;50.842;4.322;2023-06-26T00:17:52;22.10;1.00
17128;DHT22;8679;50.842;4.322;2023-06-26T00:20:18;22.10;1.00
17128;DHT22;8679;50.842;4.322;2023-06-26T00:22:44;22.00;1.00
17128;DHT22;8679;50.842;4.322;2023-06-26T00:25:10;21.90;1.00
17128;DHT22;8679;50.842;4.322;2023-06-26T00:27:36;21.80;1.00
17128;DHT22;8679;50.842;4.322;2023-06-26T00:30:02;21.70;99.90
17128;DHT22;8679;50.842;4.322;2023-06-26T00:32:28;21.70;1.00
17128;DHT22;8679;50.842;4.322;2023-06-26T00:34:54;21.70;99.90
17128;DHT22;8679;50.842;4.322;2023-06-26T00:37:19;21.60;99.90
17128;DHT22;8679;50.842;4.322;2023-06-26T00:39:47;21.60;99.90
17128;DHT22;8679;50.842;4.322;2023-06-26T00:42:13;21.50;99.90
17128;DHT22;8679;50.842;4.322;2023-06-26T00:44:38;21.40;1.00
17128;DHT22;8679;50.842;4.322;2023-06-26T00:47:04;21.30;1.00
17128;DHT22;8679;50.842;4.322;2023-06-26T00:49:30;21.10;1.00
17128;DHT22;8679;50.842;4.322;2023-06-26T00:51:56;21.00;1.00
17128;DHT22;8679;50.842;4.322;2023-06-26T00:54:22;21.00;1.00
17128;DHT22;8679;50.842;4.322;2023-06-26T00:56:48;20.90;1.00
17128;DHT22;8679;50.842;4.322;2023-06-26T00:59:14;20.90;99.90
17128;DHT22;8679;50.842;4.322;2023-06-26T01:01:39;20.90;99.90
17128;DHT22;8679;50.842;4.322;2023-06-26T01:04:05;20.80;99.90
17128;DHT22;8679;50.842;4.322;2023-06-26T01:06:33;20.80;3.10
17128;DHT22;8679;50.842;4.322;2023-06-26T01:09:02;20.70;1.00
17128;DHT22;8679;50.842;4.322;2023-06-26T01:11:28;20.70;1.00
17128;DHT22;8679;50.842;4.322;2023-06-26T01:13:54;20.60;99.90
17128;DHT22;8679;50.842;4.322;2023-06-26T01:16:23;20.60;99.90
17128;DHT22;8679;50.842;4.322;2023-06-26T01:18:49;20.50;99.90
17128;DHT22;8679;50.842;4.322;2023-06-26T01:21:16;20.50;1.00
17128;DHT22;8679;50.842;4.322;2023-06-26T01:23:54;20.50;1.00
17128;DHT22;8679;50.842;4.322;2023-06-26T01:26:23;20.40;1.00
17128;DHT22;8679;50.842;4.322;2023-06-26T01:28:53;20.40;1.00
17128;DHT22;8679;50.842;4.322;2023-06-26T01:31:19;20.40;1.00
17128;DHT22;8679;50.842;4.322;2023-06-26T01:33:45;20.40;99.90
17128;DHT22;8679;50.842;4.322;2023-06-26T01:36:12;20.40;99.90
17128;DHT22;8679;50.842;4.322;2023-06-26T01:38:38;20.30;1.00
17128;DHT22;8679;50.842;4.322;2023-06-26T01:41:04;20.30;1.00
17128;DHT22;8679;50.842;4.322;2023-06-26T01:46:42;20.20;1.00
17128;DHT22;8679;50.842;4.322;2023-06-26T01:55:02;20.10;1.00
17128;DHT22;8679;50.842;4.322;2023-06-26T01:57:30;20.10;1.00
17128;DHT22;8679;50.842;4.322;2023-06-26T01:59:57;20.00;37.70
17128;DHT22;8679;50.842;4.322;2023-06-26T02:02:24;20.00;99.90
17128;DHT22;8679;50.842;4.322;2023-06-26T02:04:51;20.00;99.90
17128;DHT22;8679;50.842;4.322;2023-06-26T02:07:16;19.90;1.00
17128;DHT22;8679;50.842;4.322;2023-06-26T02:09:42;19.90;1.00
17128;DHT22;8679;50.842;4.322;2023-06-26T02:12:09;19.80;1.00
17128;DHT22;8679;50.842;4.322;2023-06-26T02:14:34;19.80;49.90
17128;DHT22;8679;50.842;4.322;2023-06-26T02:17:00;19.80;99.90
17128;DHT22;8679;50.842;4.322;2023-06-26T02:19:26;19.80;99.90
17128;DHT22;8679;50.842;4.322;2023-06-26T02:21:55;19.80;99.90
17128;DHT22;8679;50.842;4.322;2023-06-26T02:24:21;19.80;1.00
17128;DHT22;8679;50.842;4.322;2023-06-26T02:26:47;19.70;1.00
17128;DHT22;8679;50.842;4.322;2023-06-26T02:29:14;19.70;1.00
17128;DHT22;8679;50.842;4.322;2023-06-26T02:31:40;19.70;1.00
17128;DHT22;8679;50.842;4.322;2023-06-26T02:34:06;19.70;56.40
17128;DHT22;8679;50.842;4.322;2023-06-26T02:36:32;19.70;99.90
17128;DHT22;8679;50.842;4.322;2023-06-26T02:38:58;19.70;99.90
17128;DHT22;8679;50.842;4.322;2023-06-26T02:41:23;19.60;99.90
17128;DHT22;8679;50.842;4.322;2023-06-26T02:43:49;19.60;99.90
17128;DHT22;8679;50.842;4.322;2023-06-26T02:46:14;19.50;1.00
17128;DHT22;8679;50.842;4.322;2023-06-26T02:48:40;19.50;1.00
17128;DHT22;8679;50.842;4.322;2023-06-26T02:51:07;19.50;1.00
17128;DHT22;8679;50.842;4.322;2023-06-26T02:53:33;19.40;1.00
17128;DHT22;8679;50.842;4.322;2023-06-26T02:55:59;19.50;1.00
17128;DHT22;8679;50.842;4.322;2023-06-26T02:58:24;19.40;1.00
17128;DHT22;8679;50.842;4.322;2023-06-26T03:00:50;19.40;1.00
17128;DHT22;8679;50.842;4.322;2023-06-26T03:03:16;19.30;1.00
17128;DHT22;8679;50.842;4.322;2023-06-26T03:05:42;19.20;1.00
17128;DHT22;8679;50.842;4.322;2023-06-26T03:08:07;19.20;1.00
17128;DHT22;8679;50.842;4.322;2023-06-26T03:10:33;19.20;1.00
17128;DHT22;8679;50.842;4.322;2023-06-26T03:12:59;19.10;1.00
17128;DHT22;8679;50.842;4.322;2023-06-26T03:15:25;19.10;1.00
17128;DHT22;8679;50.842;4.322;2023-06-26T03:17:50;19.10;1.00
17128;DHT22;8679;50.842;4.322;2023-06-26T03:20:16;19.00;1.00
17128;DHT22;8679;50.842;4.322;2023-06-26T03:22:42;19.00;1.00
17128;DHT22;8679;50.842;4.322;2023-06-26T03:25:07;18.90;1.00
17128;DHT22;8679;50.842;4.322;2023-06-26T03:27:33;18.90;1.00
17128;DHT22;8679;50.842;4.322;2023-06-26T03:29:59;18.90;1.00
17128;DHT22;8679;50.842;4.322;2023-06-26T03:32:25;18.90;4.10
17128;DHT22;8679;50.842;4.322;2023-06-26T03:34:51;18.80;13.20
17128;DHT22;8679;50.842;4.322;2023-06-26T03:37:18;18.70;30.20
17128;DHT22;8679;50.842;4.322;2023-06-26T03:39:44;18.60;69.80
17128;DHT22;8679;50.842;4.322;2023-06-26T03:42:09;18.60;99.90
17128;DHT22;8679;50.842;4.322;2023-06-26T03:44:35;18.60;99.90
17128;DHT22;8679;50.842;4.322;2023-06-26T03:47:00;18.50;99.90
17128;DHT22;8679;50.842;4.322;2023-06-26T03:49:26;18.50;99.90
17128;DHT22;8679;50.842;4.322;2023-06-26T03:51:52;18.50;99.90
17128;DHT22;8679;50.842;4.322;2023-06-26T03:54:17;18.50;99.90
17128;DHT22;8679;50.842;4.322;2023-06-26T03:56:43;18.50;99.90
17128;DHT22;8679;50.842;4.322;2023-06-26T03:59:10;18.50;68.60
17128;DHT22;8679;50.842;4.322;2023-06-26T04:01:36;18.40;59.70
17128;DHT22;8679;50.842;4.322;2023-06-26T04:04:02;18.40;53.80
17128;DHT22;8679;50.842;4.322;2023-06-26T04:06:28;18.50;33.90
17128;DHT22;8679;50.842;4.322;2023-06-26T04:08:57;18.40;42.50
17128;DHT22;8679;50.842;4.322;2023-06-26T04:11:22;18.40;42.00
17128;DHT22;8679;50.842;4.322;2023-06-26T04:13:49;18.40;74.30
17128;DHT22;8679;50.842;4.322;2023-06-26T04:16:15;18.40;61.00
17128;DHT22;8679;50.842;4.322;2023-06-26T04:18:41;18.30;22.90
17128;DHT22;8679;50.842;4.322;2023-06-26T04:21:11;18.30;1.00
17128;DHT22;8679;50.842;4.322;2023-06-26T04:23:38;18.30;1.00
17128;DHT22;8679;50.842;4.322;2023-06-26T04:26:07;18.30;1.00
17128;DHT22;8679;50.842;4.322;2023-06-26T04:28:34;18.30;1.00
17128;DHT22;8679;50.842;4.322;2023-06-26T04:31:03;18.30;1.00
17128;DHT22;8679;50.842;4.322;2023-06-26T04:33:29;18.20;1.00
17128;DHT22;8679;50.842;4.322;2023-06-26T04:35:55;18.20;1.00
17128;DHT22;8679;50.842;4.322;2023-06-26T04:38:20;18.20;1.00
17128;DHT22;8679;50.842;4.322;2023-06-26T04:40:47;18.20;1.00
17128;DHT22;8679;50.842;4.322;2023-06-26T04:43:13;18.20;1.00
17128;DHT22;8679;50.842;4.322;2023-06-26T04:45:38;18.10;1.00
17128;DHT22;8679;50.842;4.322;2023-06-26T04:48:04;18.10;1.00
17128;DHT22;8679;50.842;4.322;2023-06-26T04:50:31;18.10;1.00
17128;DHT22;8679;50.842;4.322;2023-06-26T04:52:59;18.00;1.00
17128;DHT22;8679;50.842;4.322;2023-06-26T04:55:25;17.90;1.00
17128;DHT22;8679;50.842;4.322;2023-06-26T04:57:51;18.00;1.00
17128;DHT22;8679;50.842;4.322;2023-06-26T05:00:17;18.00;1.00
17128;DHT22;8679;50.842;4.322;2023-06-26T05:02:42;18.00;1.00
17128;DHT22;8679;50.842;4.322;2023-06-26T05:05:08;18.00;1.00
17128;DHT22;8679;50.842;4.322;2023-06-26T05:07:34;17.90;1.00
17128;DHT22;8679;50.842;4.322;2023-06-26T05:09:59;17.90;1.00
17128;DHT22;8679;50.842;4.322;2023-06-26T05:12:25;17.90;1.00
17128;DHT22;8679;50.842;4.322;2023-06-26T05:14:51;17.90;1.00
17128;DHT22;8679;50.842;4.322;2023-06-26T05:17:17;17.90;1.00
17128;DHT22;8679;50.842;4.322;2023-06-26T05:19:42;17.90;1.00
17128;DHT22;8679;50.842;4.322;2023-06-26T05:22:08;17.90;1.00
17128;DHT22;8679;50.842;4.322;2023-06-26T05:24:38;17.90;1.00
17128;DHT22;8679;50.842;4.322;2023-06-26T05:27:05;17.90;1.00
17128;DHT22;8679;50.842;4.322;2023-06-26T05:29:31;17.90;1.00
17128;DHT22;8679;50.842;4.322;2023-06-26T05:31:58;18.00;1.00
17128;DHT22;8679;50.842;4.322;2023-06-26T05:34:24;18.00;1.00
17128;DHT22;8679;50.842;4.322;2023-06-26T05:36:51;18.00;99.90
17128;DHT22;8679;50.842;4.322;2023-06-26T05:39:18;18.10;99.90
17128;DHT22;8679;50.842;4.322;2023-06-26T05:41:47;18.10;32.30
17128;DHT22;8679;50.842;4.322;2023-06-26T05:44:12;18.20;99.90
17128;DHT22;8679;50.842;4.322;2023-06-26T05:46:38;18.10;1.00
17128;DHT22;8679;50.842;4.322;2023-06-26T05:49:04;18.10;1.00
17128;DHT22;8679;50.842;4.322;2023-06-26T05:51:30;18.10;1.00
17128;DHT22;8679;50.842;4.322;2023-06-26T05:53:56;18.20;1.00
17128;DHT22;8679;50.842;4.322;2023-06-26T05:56:22;18.20;1.00
17128;DHT22;8679;50.842;4.322;2023-06-26T05:58:48;18.30;99.90
17128;DHT22;8679;50.842;4.322;2023-06-26T06:01:14;18.30;68.90
17128;DHT22;8679;50.842;4.322;2023-06-26T06:03:40;18.30;47.00
17128;DHT22;8679;50.842;4.322;2023-06-26T06:06:05;18.30;99.90
17128;DHT22;8679;50.842;4.322;2023-06-26T06:08:31;18.40;1.00
17128;DHT22;8679;50.842;4.322;2023-06-26T06:12:18;18.50;1.00
17128;DHT22;8679;50.842;4.322;2023-06-26T06:14:44;18.50;99.90
17128;DHT22;8679;50.842;4.322;2023-06-26T06:17:10;18.50;99.90
17128;DHT22;8679;50.842;4.322;2023-06-26T06:19:36;18.40;99.90
17128;DHT22;8679;50.842;4.322;2023-06-26T06:22:01;18.50;99.90
17128;DHT22;8679;50.842;4.322;2023-06-26T06:24:27;18.50;99.90
17128;DHT22;8679;50.842;4.322;2023-06-26T06:26:53;18.60;99.90
17128;DHT22;8679;50.842;4.322;2023-06-26T06:29:19;18.70;1.00
17128;DHT22;8679;50.842;4.322;2023-06-26T06:31:45;18.70;1.00
17128;DHT22;8679;50.842;4.322;2023-06-26T06:34:11;18.80;99.90
17128;DHT22;8679;50.842;4.322;2023-06-26T06:36:39;18.90;99.90
17128;DHT22;8679;50.842;4.322;2023-06-26T06:39:04;18.90;99.90
17128;DHT22;8679;50.842;4.322;2023-06-26T06:41:30;18.80;99.90
17128;DHT22;8679;50.842;4.322;2023-06-26T06:43:55;18.80;1.00
17128;DHT22;8679;50.842;4.322;2023-06-26T06:46:21;18.80;99.90
17128;DHT22;8679;50.842;4.322;2023-06-26T06:48:48;18.90;1.00
17128;DHT22;8679;50.842;4.322;2023-06-26T06:51:13;18.90;1.00
17128;DHT22;8679;50.842;4.322;2023-06-26T06:53:39;18.90;1.00
17128;DHT22;8679;50.842;4.322;2023-06-26T06:56:05;19.00;1.00
17128;DHT22;8679;50.842;4.322;2023-06-26T06:58:30;19.00;99.90
17128;DHT22;8679;50.842;4.322;2023-06-26T07:00:59;19.10;99.90
17128;DHT22;8679;50.842;4.322;2023-06-26T07:03:25;19.00;99.90
17128;DHT22;8679;50.842;4.322;2023-06-26T07:05:51;19.00;99.90
17128;DHT22;8679;50.842;4.322;2023-06-26T07:08:16;19.00;1.00
17128;DHT22;8679;50.842;4.322;2023-06-26T07:10:42;19.00;1.00
17128;DHT22;8679;50.842;4.322;2023-06-26T07:13:07;19.20;1.00
17128;DHT22;8679;50.842;4.322;2023-06-26T07:15:33;19.10;1.00
17128;DHT22;8679;50.842;4.322;2023-06-26T07:17:59;19.20;1.00
17128;DHT22;8679;50.842;4.322;2023-06-26T07:20:24;19.20;1.00
17128;DHT22;8679;50.842;4.322;2023-06-26T07:22:50;19.10;1.00
17128;DHT22;8679;50.842;4.322;2023-06-26T07:25:16;19.10;1.00
17128;DHT22;8679;50.842;4.322;2023-06-26T07:27:42;19.20;1.00
17128;DHT22;8679;50.842;4.322;2023-06-26T07:30:09;19.30;99.90
17128;DHT22;8679;50.842;4.322;2023-06-26T07:32:35;19.40;1.00
17128;DHT22;8679;50.842;4.322;2023-06-26T07:35:01;19.50;99.90
17128;DHT22;8679;50.842;4.322;2023-06-26T07:37:27;19.40;1.00
17128;DHT22;8679;50.842;4.322;2023-06-26T07:39:52;19.40;99.90
17128;DHT22;8679;50.842;4.322;2023-06-26T07:42:18;19.60;99.90
17128;DHT22;8679;50.842;4.322;2023-06-26T07:44:44;19.60;99.90
17128;DHT22;8679;50.842;4.322;2023-06-26T07:47:10;19.70;1.00
17128;DHT22;8679;50.842;4.322;2023-06-26T07:49:36;19.80;1.00
17128;DHT22;8679;50.842;4.322;2023-06-26T07:52:02;19.90;1.00
17128;DHT22;8679;50.842;4.322;2023-06-26T07:54:27;19.80;99.90
17128;DHT22;8679;50.842;4.322;2023-06-26T07:56:57;19.80;99.90
17128;DHT22;8679;50.842;4.322;2023-06-26T07:59:24;19.80;99.90
17128;DHT22;8679;50.842;4.322;2023-06-26T08:01:51;20.00;99.90
17128;DHT22;8679;50.842;4.322;2023-06-26T08:04:19;19.90;1.00
17128;DHT22;8679;50.842;4.322;2023-06-26T08:06:49;19.80;1.00
17128;DHT22;8679;50.842;4.322;2023-06-26T08:09:15;20.00;1.00
17128;DHT22;8679;50.842;4.322;2023-06-26T08:11:41;19.90;1.00
17128;DHT22;8679;50.842;4.322;2023-06-26T08:14:06;19.90;1.00
17128;DHT22;8679;50.842;4.322;2023-06-26T08:16:32;19.90;1.00
17128;DHT22;8679;50.842;4.322;2023-06-26T08:18:58;19.90;99.90
17128;DHT22;8679;50.842;4.322;2023-06-26T08:21:23;20.10;1.00
17128;DHT22;8679;50.842;4.322;2023-06-26T08:23:49;20.20;99.90
17128;DHT22;8679;50.842;4.322;2023-06-26T08:26:14;20.30;99.90
17128;DHT22;8679;50.842;4.322;2023-06-26T08:28:40;20.30;99.90
17128;DHT22;8679;50.842;4.322;2023-06-26T08:31:06;20.30;99.90
17128;DHT22;8679;50.842;4.322;2023-06-26T08:33:31;20.30;99.90
17128;DHT22;8679;50.842;4.322;2023-06-26T08:35:57;20.30;99.90
17128;DHT22;8679;50.842;4.322;2023-06-26T08:38:23;20.30;1.00
17128;DHT22;8679;50.842;4.322;2023-06-26T08:40:48;20.40;1.00
17128;DHT22;8679;50.842;4.322;2023-06-26T08:43:14;20.50;99.90
17128;DHT22;8679;50.842;4.322;2023-06-26T08:45:40;20.50;99.90
17128;DHT22;8679;50.842;4.322;2023-06-26T08:48:08;20.40;99.90
17128;DHT22;8679;50.842;4.322;2023-06-26T08:50:35;20.50;1.00
17128;DHT22;8679;50.842;4.322;2023-06-26T08:53:39;20.40;1.00
17128;DHT22;8679;50.842;4.322;2023-06-26T08:56:07;20.40;1.00
17128;DHT22;8679;50.842;4.322;2023-06-26T08:58:34;20.40;99.90
17128;DHT22;8679;50.842;4.322;2023-06-26T09:01:02;20.50;99.90
17128;DHT22;8679;50.842;4.322;2023-06-26T09:03:29;20.40;99.90
17128;DHT22;8679;50.842;4.322;2023-06-26T09:05:55;20.60;99.90
17128;DHT22;8679;50.842;4.322;2023-06-26T09:08:21;20.60;99.90
17128;DHT22;8679;50.842;4.322;2023-06-26T09:10:47;20.70;99.90
17128;DHT22;8679;50.842;4.322;2023-06-26T09:13:13;20.80;99.90
17128;DHT22;8679;50.842;4.322;2023-06-26T09:15:42;20.90;1.00
17128;DHT22;8679;50.842;4.322;2023-06-26T09:18:08;20.90;1.00
17128;DHT22;8679;50.842;4.322;2023-06-26T09:20:33;20.90;1.00
17128;DHT22;8679;50.842;4.322;2023-06-26T09:23:00;21.20;1.00
17128;DHT22;8679;50.842;4.322;2023-06-26T09:25:26;21.20;1.00
17128;DHT22;8679;50.842;4.322;2023-06-26T09:27:52;20.90;1.00
17128;DHT22;8679;50.842;4.322;2023-06-26T09:30:18;21.00;1.00
17128;DHT22;8679;50.842;4.322;2023-06-26T09:32:44;21.10;1.00
17128;DHT22;8679;50.842;4.322;2023-06-26T09:35:10;21.30;1.00
17128;DHT22;8679;50.842;4.322;2023-06-26T09:37:36;21.40;94.80
17128;DHT22;8679;50.842;4.322;2023-06-26T09:40:03;21.20;1.00
17128;DHT22;8679;50.842;4.322;2023-06-26T09:42:30;21.20;1.00
17128;DHT22;8679;50.842;4.322;2023-06-26T09:44:56;21.10;1.00
17128;DHT22;8679;50.842;4.322;2023-06-26T09:47:22;21.10;1.00
17128;DHT22;8679;50.842;4.322;2023-06-26T09:49:47;21.20;1.00
17128;DHT22;8679;50.842;4.322;2023-06-26T09:52:15;21.40;1.00
17128;DHT22;8679;50.842;4.322;2023-06-26T09:54:42;21.50;1.00
17128;DHT22;8679;50.842;4.322;2023-06-26T09:57:15;21.70;1.00
17128;DHT22;8679;50.842;4.322;2023-06-26T09:59:42;21.70;1.00
17128;DHT22;8679;50.842;4.322;2023-06-26T10:02:09;21.60;1.00
17128;DHT22;8679;50.842;4.322;2023-06-26T10:04:36;21.60;1.00
17128;DHT22;8679;50.842;4.322;2023-06-26T10:07:05;21.70;1.00
17128;DHT22;8679;50.842;4.322;2023-06-26T10:09:31;21.70;99.90
17128;DHT22;8679;50.842;4.322;2023-06-26T10:12:10;21.60;99.90
17128;DHT22;8679;50.842;4.322;2023-06-26T10:14:41;21.60;99.90
17128;DHT22;8679;50.842;4.322;2023-06-26T10:17:09;21.60;99.90
17128;DHT22;8679;50.842;4.322;2023-06-26T10:19:39;21.60;99.90
17128;DHT22;8679;50.842;4.322;2023-06-26T10:22:07;21.70;99.90
17128;DHT22;8679;50.842;4.322;2023-06-26T10:24:35;21.70;99.90
17128;DHT22;8679;50.842;4.322;2023-06-26T10:27:11;21.80;99.90
17128;DHT22;8679;50.842;4.322;2023-06-26T10:29:39;21.80;99.90
17128;DHT22;8679;50.842;4.322;2023-06-26T10:32:05;21.80;69.50
17128;DHT22;8679;50.842;4.322;2023-06-26T10:34:32;21.80;46.40
17128;DHT22;8679;50.842;4.322;2023-06-26T10:37:02;22.10;99.90
17128;DHT22;8679;50.842;4.322;2023-06-26T10:39:49;22.10;99.90
17128;DHT22;8679;50.842;4.322;2023-06-26T10:42:16;22.00;99.90
17128;DHT22;8679;50.842;4.322;2023-06-26T10:44:43;22.10;99.90
17128;DHT22;8679;50.842;4.322;2023-06-26T10:47:10;22.00;80.40
17128;DHT22;8679;50.842;4.322;2023-06-26T10:49:37;21.90;56.60
17128;DHT22;8679;50.842;4.322;2023-06-26T10:52:05;22.00;8.30
17128;DHT22;8679;50.842;4.322;2023-06-26T10:54:32;22.30;1.00
17128;DHT22;8679;50.842;4.322;2023-06-26T10:56:59;22.30;1.00
17128;DHT22;8679;50.842;4.322;2023-06-26T10:59:27;22.40;1.00
17128;DHT22;8679;50.842;4.322;2023-06-26T11:02:00;22.30;1.00
17128;DHT22;8679;50.842;4.322;2023-06-26T11:07:31;22.10;1.00
17128;DHT22;8679;50.842;4.322;2023-06-26T11:10:00;22.20;1.00
17128;DHT22;8679;50.842;4.322;2023-06-26T11:12:43;22.50;1.00
17128;DHT22;8679;50.842;4.322;2023-06-26T11:15:10;22.50;1.00
17128;DHT22;8679;50.842;4.322;2023-06-26T11:17:36;22.50;1.00
17128;DHT22;8679;50.842;4.322;2023-06-26T11:20:07;22.50;1.00
17128;DHT22;8679;50.842;4.322;2023-06-26T11:22:37;22.50;1.00
17128;DHT22;8679;50.842;4.322;2023-06-26T11:25:04;22.60;1.00
17128;DHT22;8679;50.842;4.322;2023-06-26T11:27:41;22.40;9.00
17128;DHT22;8679;50.842;4.322;2023-06-26T11:30:11;22.40;27.40
17128;DHT22;8679;50.842;4.322;2023-06-26T11:32:38;22.30;1.00
17128;DHT22;8679;50.842;4.322;2023-06-26T11:35:05;22.30;1.00
17128;DHT22;8679;50.842;4.322;2023-06-26T11:37:31;22.30;1.00
17128;DHT22;8679;50.842;4.322;2023-06-26T11:39:57;22.40;1.00
17128;DHT22;8679;50.842;4.322;2023-06-26T11:42:23;22.60;1.00
17128;DHT22;8679;50.842;4.322;2023-06-26T11:44:50;22.70;1.00
17128;DHT22;8679;50.842;4.322;2023-06-26T11:47:20;22.90;1.00
17128;DHT22;8679;50.842;4.322;2023-06-26T11:49:47;22.70;1.00
17128;DHT22;8679;50.842;4.322;2023-06-26T11:52:14;22.40;1.00
17128;DHT22;8679;50.842;4.322;2023-06-26T11:54:41;22.40;1.00
17128;DHT22;8679;50.842;4.322;2023-06-26T11:57:07;22.70;1.00
17128;DHT22;8679;50.842;4.322;2023-06-26T11:59:37;23.10;1.00
17128;DHT22;8679;50.842;4.322;2023-06-26T12:02:09;23.20;1.00
17128;DHT22;8679;50.842;4.322;2023-06-26T12:04:41;23.40;1.00
17128;DHT22;8679;50.842;4.322;2023-06-26T12:07:08;23.40;1.00
17128;DHT22;8679;50.842;4.322;2023-06-26T12:09:42;23.50;1.00
17128;DHT22;8679;50.842;4.322;2023-06-26T12:12:10;23.30;1.00
17128;DHT22;8679;50.842;4.322;2023-06-26T12:14:36;23.10;1.00
17128;DHT22;8679;50.842;4.322;2023-06-26T12:17:12;23.00;1.00
17128;DHT22;8679;50.842;4.322;2023-06-26T12:19:47;23.00;1.00
17128;DHT22;8679;50.842;4.322;2023-06-26T12:22:16;23.10;1.00
17128;DHT22;8679;50.842;4.322;2023-06-26T12:24:43;22.90;1.00
17128;DHT22;8679;50.842;4.322;2023-06-26T12:27:10;23.00;99.90
17128;DHT22;8679;50.842;4.322;2023-06-26T12:29:37;23.40;99.90
17128;DHT22;8679;50.842;4.322;2023-06-26T12:32:03;23.50;99.90
17128;DHT22;8679;50.842;4.322;2023-06-26T12:34:33;23.80;99.90
17128;DHT22;8679;50.842;4.322;2023-06-26T12:37:09;23.40;99.90
17128;DHT22;8679;50.842;4.322;2023-06-26T12:39:49;23.60;99.90
17128;DHT22;8679;50.842;4.322;2023-06-26T12:42:20;23.50;99.90
17128;DHT22;8679;50.842;4.322;2023-06-26T12:44:46;23.50;99.90
17128;DHT22;8679;50.842;4.322;2023-06-26T12:47:14;23.60;99.90
17128;DHT22;8679;50.842;4.322;2023-06-26T12:49:41;23.50;99.90
17128;DHT22;8679;50.842;4.322;2023-06-26T12:52:14;23.40;99.90
17128;DHT22;8679;50.842;4.322;2023-06-26T12:54:41;23.50;99.90
17128;DHT22;8679;50.842;4.322;2023-06-26T12:57:07;23.50;99.90
17128;DHT22;8679;50.842;4.322;2023-06-26T12:59:34;23.30;99.90
17128;DHT22;8679;50.842;4.322;2023-06-26T13:02:00;23.30;99.90
17128;DHT22;8679;50.842;4.322;2023-06-26T13:04:25;23.40;99.90
17128;DHT22;8679;50.842;4.322;2023-06-26T13:06:52;23.40;99.90
17128;DHT22;8679;50.842;4.322;2023-06-26T13:09:21;23.50;99.90
17128;DHT22;8679;50.842;4.322;2023-06-26T13:11:46;23.40;99.90
17128;DHT22;8679;50.842;4.322;2023-06-26T13:14:12;23.40;99.90
17128;DHT22;8679;50.842;4.322;2023-06-26T13:16:38;23.40;99.90
17128;DHT22;8679;50.842;4.322;2023-06-26T13:19:04;23.40;99.90
17128;DHT22;8679;50.842;4.322;2023-06-26T13:21:29;23.50;99.90
17128;DHT22;8679;50.842;4.322;2023-06-26T13:23:56;23.70;99.90
17128;DHT22;8679;50.842;4.322;2023-06-26T13:26:22;24.00;99.90
17128;DHT22;8679;50.842;4.322;2023-06-26T13:28:48;24.20;99.90
17128;DHT22;8679;50.842;4.322;2023-06-26T13:31:14;24.80;99.90
17128;DHT22;8679;50.842;4.322;2023-06-26T13:33:40;24.50;99.90
17128;DHT22;8679;50.842;4.322;2023-06-26T13:36:06;24.50;99.90
17128;DHT22;8679;50.842;4.322;2023-06-26T13:38:33;25.00;99.90
17128;DHT22;8679;50.842;4.322;2023-06-26T13:40:59;25.60;99.90
17128;DHT22;8679;50.842;4.322;2023-06-26T13:43:28;25.50;99.90
17128;DHT22;8679;50.842;4.322;2023-06-26T13:45:54;24.90;99.90
17128;DHT22;8679;50.842;4.322;2023-06-26T13:48:20;25.40;99.90
17128;DHT22;8679;50.842;4.322;2023-06-26T13:50:50;26.10;99.90
17128;DHT22;8679;50.842;4.322;2023-06-26T13:53:16;25.80;99.90
17128;DHT22;8679;50.842;4.322;2023-06-26T13:55:42;25.60;99.90
17128;DHT22;8679;50.842;4.322;2023-06-26T13:58:09;25.40;99.90
17128;DHT22;8679;50.842;4.322;2023-06-26T14:00:35;25.80;99.90
17128;DHT22;8679;50.842;4.322;2023-06-26T14:03:02;26.60;99.90
17128;DHT22;8679;50.842;4.322;2023-06-26T14:05:29;26.10;99.90
17128;DHT22;8679;50.842;4.322;2023-06-26T14:07:55;25.70;41.60
17128;DHT22;8679;50.842;4.322;2023-06-26T14:10:21;25.30;49.30
17128;DHT22;8679;50.842;4.322;2023-06-26T14:12:47;25.30;20.80
17128;DHT22;8679;50.842;4.322;2023-06-26T14:15:13;25.50;16.90
17128;DHT22;8679;50.842;4.322;2023-06-26T14:17:38;26.00;1.00
17128;DHT22;8679;50.842;4.322;2023-06-26T14:20:06;26.00;1.00
17128;DHT22;8679;50.842;4.322;2023-06-26T14:22:35;25.80;1.00
17128;DHT22;8679;50.842;4.322;2023-06-26T14:25:01;26.00;1.00
17128;DHT22;8679;50.842;4.322;2023-06-26T14:27:27;26.40;1.00
17128;DHT22;8679;50.842;4.322;2023-06-26T14:29:52;26.80;5.30
17128;DHT22;8679;50.842;4.322;2023-06-26T14:32:18;27.00;20.80
17128;DHT22;8679;50.842;4.322;2023-06-26T14:34:43;27.60;15.10
17128;DHT22;8679;50.842;4.322;2023-06-26T14:37:09;26.80;1.00
17128;DHT22;8679;50.842;4.322;2023-06-26T14:39:35;26.10;1.00
17128;DHT22;8679;50.842;4.322;2023-06-26T14:42:00;26.00;1.00
17128;DHT22;8679;50.842;4.322;2023-06-26T14:44:26;26.00;1.00
17128;DHT22;8679;50.842;4.322;2023-06-26T14:46:51;25.70;1.00
17128;DHT22;8679;50.842;4.322;2023-06-26T14:49:17;25.30;1.00
17128;DHT22;8679;50.842;4.322;2023-06-26T14:51:44;25.10;16.50
17128;DHT22;8679;50.842;4.322;2023-06-26T14:54:10;24.50;3.90
17128;DHT22;8679;50.842;4.322;2023-06-26T14:56:35;24.50;10.60
17128;DHT22;8679;50.842;4.322;2023-06-26T14:59:01;24.40;28.00
17128;DHT22;8679;50.842;4.322;2023-06-26T15:01:26;23.80;23.60
17128;DHT22;8679;50.842;4.322;2023-06-26T15:03:52;23.80;32.70
17128;DHT22;8679;50.842;4.322;2023-06-26T15:06:17;24.00;48.80
17128;DHT22;8679;50.842;4.322;2023-06-26T15:08:44;24.30;56.20
17128;DHT22;8679;50.842;4.322;2023-06-26T15:11:09;24.20;58.50
17128;DHT22;8679;50.842;4.322;2023-06-26T15:13:35;24.30;81.80
17128;DHT22;8679;50.842;4.322;2023-06-26T15:16:00;24.30;99.70
17128;DHT22;8679;50.842;4.322;2023-06-26T15:18:26;24.40;99.90
17128;DHT22;8679;50.842;4.322;2023-06-26T15:20:51;24.40;99.90
17128;DHT22;8679;50.842;4.322;2023-06-26T15:23:17;24.60;99.90
17128;DHT22;8679;50.842;4.322;2023-06-26T15:25:42;24.50;99.90
17128;DHT22;8679;50.842;4.322;2023-06-26T15:28:08;24.90;99.90
17128;DHT22;8679;50.842;4.322;2023-06-26T15:30:34;25.20;99.90
17128;DHT22;8679;50.842;4.322;2023-06-26T15:32:59;24.80;99.90
17128;DHT22;8679;50.842;4.322;2023-06-26T15:35:25;25.10;99.90
17128;DHT22;8679;50.842;4.322;2023-06-26T15:37:52;25.20;99.90
17128;DHT22;8679;50.842;4.322;2023-06-26T15:40:17;24.90;99.90
17128;DHT22;8679;50.842;4.322;2023-06-26T15:42:50;25.20;99.90
17128;DHT22;8679;50.842;4.322;2023-06-26T15:45:16;25.50;99.90
17128;DHT22;8679;50.842;4.322;2023-06-26T15:47:48;25.00;76.10
17128;DHT22;8679;50.842;4.322;2023-06-26T15:50:15;24.80;81.80
17128;DHT22;8679;50.842;4.322;2023-06-26T15:52:40;24.10;44.60
17128;DHT22;8679;50.842;4.322;2023-06-26T15:55:06;24.10;58.90
17128;DHT22;8679;50.842;4.322;2023-06-26T15:57:33;24.10;66.80
17128;DHT22;8679;50.842;4.322;2023-06-26T15:59:59;23.80;65.40
17128;DHT22;8679;50.842;4.322;2023-06-26T16:02:26;23.70;81.10
17128;DHT22;8679;50.842;4.322;2023-06-26T16:04:51;23.80;79.60